CCGS Tanu — CGBY — position and weather

sailwx.info

Track history (hours):
 
Tides and Currents Weather Stations Pressure Air Temp Water Temp Dewpoint Dewpoint Depression Visibility Wind Speed Wind Dir Waves Ship Positions

CCGS Tanu (Canada)

Ship's website: http://www.ccg-gcc.gc.ca/vessels-navires/details_e.asp?id=M-5

Last reported at 2014-Oct-18 21:20 UTC. Time now 2014-Oct-20 08:04 UTC.
Position N 50°32' W 127°40'.

Length 54.5 m; beam 9.7 m; draft 3.7 m.

Type: SAR. MMSI: 316091000.

Date/timePositionNaut miles runAvg speedWind from/ knotsBaromVisibWave heightAir tempDewpointWater temp
2014-Oct-18 21:20N 50°32' W 127°40'  
2014-Oct-16 14:29N 50°51' W 127°52'0 0.0
2014-Oct-16 13:23N 50°51' W 127°52'0 0.0
2014-Oct-16 12:28N 50°51' W 127°52'0 0.0
2014-Oct-16 11:28N 50°51' W 127°52'0 0.0
2014-Oct-16 10:28N 50°51' W 127°52'0 0.0
2014-Oct-16 09:28N 50°51' W 127°52'0 0.0
2014-Oct-16 08:29N 50°51' W 127°52'3 6.1
2014-Oct-16 08:00N 50°54' W 127°54'3 4.2 160 / 41008.3 10.511.0
2014-Oct-16 07:16N 50°51' W 127°52'0 0.0
2014-Oct-16 06:28N 50°51' W 127°52'0 0.0
2014-Oct-16 05:29N 50°51' W 127°52'0 0.0
2014-Oct-16 04:10N 50°51' W 127°52'0 0.0
2014-Oct-16 03:20N 50°51' W 127°52'4 5.7
2014-Oct-16 02:33N 50°51' W 127°45'1110.7
2014-Oct-16 01:33N 50°47' W 127°29'3 3.2
2014-Oct-16 00:30N 50°43' W 127°29'0 0.0
2014-Oct-15 23:30N 50°43' W 127°29'0 0.0
2014-Oct-15 22:30N 50°43' W 127°29'0 0.0
2014-Oct-15 20:12N 50°43' W 127°29'0 0.0
2014-Oct-15 19:12N 50°43' W 127°29'0 0.0
2014-Oct-15 18:30N 50°43' W 127°29'0 0.0
2014-Oct-15 17:30N 50°43' W 127°29'0 0.0
2014-Oct-15 16:30N 50°43' W 127°29'0 0.0
2014-Oct-15 15:24N 50°43' W 127°29'0 0.0
2014-Oct-15 14:30N 50°43' W 127°29'0 0.0
2014-Oct-15 13:30N 50°43' W 127°29'0 0.0
2014-Oct-15 12:30N 50°43' W 127°29'0 0.0
2014-Oct-15 11:30N 50°43' W 127°29'0 0.0
2014-Oct-15 07:06N 50°43' W 127°29'0 0.0
2014-Oct-15 06:30N 50°43' W 127°29'0 0.0
2014-Oct-15 05:30N 50°43' W 127°29'0 0.0
2014-Oct-15 04:30N 50°43' W 127°29'0 0.0
2014-Oct-15 03:30N 50°43' W 127°29'0 0.0
2014-Oct-15 02:30N 50°43' W 127°29'1 2.8
2014-Oct-15 02:00N 50°42' W 127°30'1 2.9 160 / 31002.6 9.910.214.0
2014-Oct-15 01:30N 50°43' W 127°29'0 0.0
2014-Oct-15 00:30N 50°43' W 127°29'1 0.8
2014-Oct-14 23:32N 50°44' W 127°28'0 0.3
2014-Oct-14 22:32N 50°43' W 127°28'0 0.0
2014-Oct-14 21:32N 50°43' W 127°28'0 0.0
2014-Oct-14 20:32N 50°43' W 127°28'4 4.4
2014-Oct-14 19:33N 50°48' W 127°27'1010.2
2014-Oct-14 18:33N 50°55' W 127°39'1010.3
2014-Oct-14 17:33N 51°03' W 127°48'1010.1
2014-Oct-14 16:33N 51°13' W 127°52'  
2014-Oct-09 11:00N 53°30' W 130°00'   110 / 81011.1 13.314.2
Track history (hours):
 
Tides and Currents Weather Stations Pressure Air Temp Water Temp Dewpoint Dewpoint Depression Visibility Wind Speed Wind Dir Waves Ship Positions

CCGS Tanu (Canada)

Ship's website: http://www.ccg-gcc.gc.ca/vessels-navires/details_e.asp?id=M-5

Last reported at 2014-Oct-18 21:20 UTC. Time now 2014-Oct-20 08:04 UTC.
Position N 50°32' W 127°40'.

Length 54.5 m; beam 9.7 m; draft 3.7 m.

Type: SAR. MMSI: 316091000.

Date/timePositionNaut miles runAvg speedWind from/ knotsBaromVisibWave heightAir tempDewpointWater temp
2014-Oct-18 21:20N 50°32' W 127°40'  
2014-Oct-16 14:29N 50°51' W 127°52'0 0.0
2014-Oct-16 13:23N 50°51' W 127°52'0 0.0
2014-Oct-16 12:28N 50°51' W 127°52'0 0.0
2014-Oct-16 11:28N 50°51' W 127°52'0 0.0
2014-Oct-16 10:28N 50°51' W 127°52'0 0.0
2014-Oct-16 09:28N 50°51' W 127°52'0 0.0
2014-Oct-16 08:29N 50°51' W 127°52'3 6.1
2014-Oct-16 08:00N 50°54' W 127°54'3 4.2 160 / 41008.3 10.511.0
2014-Oct-16 07:16N 50°51' W 127°52'0 0.0
2014-Oct-16 06:28N 50°51' W 127°52'0 0.0
2014-Oct-16 05:29N 50°51' W 127°52'0 0.0
2014-Oct-16 04:10N 50°51' W 127°52'0 0.0
2014-Oct-16 03:20N 50°51' W 127°52'4 5.7
2014-Oct-16 02:33N 50°51' W 127°45'1110.7
2014-Oct-16 01:33N 50°47' W 127°29'3 3.2
2014-Oct-16 00:30N 50°43' W 127°29'0 0.0
2014-Oct-15 23:30N 50°43' W 127°29'0 0.0
2014-Oct-15 22:30N 50°43' W 127°29'0 0.0
2014-Oct-15 20:12N 50°43' W 127°29'0 0.0
2014-Oct-15 19:12N 50°43' W 127°29'0 0.0
2014-Oct-15 18:30N 50°43' W 127°29'0 0.0
2014-Oct-15 17:30N 50°43' W 127°29'0 0.0
2014-Oct-15 16:30N 50°43' W 127°29'0 0.0
2014-Oct-15 15:24N 50°43' W 127°29'0 0.0
2014-Oct-15 14:30N 50°43' W 127°29'0 0.0
2014-Oct-15 13:30N 50°43' W 127°29'0 0.0
2014-Oct-15 12:30N 50°43' W 127°29'0 0.0
2014-Oct-15 11:30N 50°43' W 127°29'0 0.0
2014-Oct-15 07:06N 50°43' W 127°29'0 0.0
2014-Oct-15 06:30N 50°43' W 127°29'0 0.0
2014-Oct-15 05:30N 50°43' W 127°29'0 0.0
2014-Oct-15 04:30N 50°43' W 127°29'0 0.0
2014-Oct-15 03:30N 50°43' W 127°29'0 0.0
2014-Oct-15 02:30N 50°43' W 127°29'1 2.8
2014-Oct-15 02:00N 50°42' W 127°30'1 2.9 160 / 31002.6 9.910.214.0
2014-Oct-15 01:30N 50°43' W 127°29'0 0.0
2014-Oct-15 00:30N 50°43' W 127°29'1 0.8
2014-Oct-14 23:32N 50°44' W 127°28'0 0.3
2014-Oct-14 22:32N 50°43' W 127°28'0 0.0
2014-Oct-14 21:32N 50°43' W 127°28'0 0.0
2014-Oct-14 20:32N 50°43' W 127°28'4 4.4
2014-Oct-14 19:33N 50°48' W 127°27'1010.2
2014-Oct-14 18:33N 50°55' W 127°39'1010.3
2014-Oct-14 17:33N 51°03' W 127°48'1010.1
2014-Oct-14 16:33N 51°13' W 127°52'  
2014-Oct-09 11:00N 53°30' W 130°00'   110 / 81011.1 13.314.2

Dump ship's entire track history